sensor_id;sensor_type;location;lat;lon;timestamp;P1;durP1;ratioP1;P2;durP2;ratioP2
21430;SDS011;10876;49.038;10.608;2024-02-26T00:01:32;0.98;;;0.93;;
21430;SDS011;10876;49.038;10.608;2024-02-26T00:03:59;1.40;;;1.20;;
21430;SDS011;10876;49.038;10.608;2024-02-26T00:06:27;2.30;;;1.55;;
21430;SDS011;10876;49.038;10.608;2024-02-26T00:08:54;1.60;;;1.50;;
21430;SDS011;10876;49.038;10.608;2024-02-26T00:11:20;1.40;;;1.05;;
21430;SDS011;10876;49.038;10.608;2024-02-26T00:13:48;3.13;;;1.40;;
21430;SDS011;10876;49.038;10.608;2024-02-26T00:16:15;1.63;;;1.42;;
21430;SDS011;10876;49.038;10.608;2024-02-26T00:18:41;1.35;;;1.15;;
21430;SDS011;10876;49.038;10.608;2024-02-26T00:21:08;2.42;;;1.30;;
21430;SDS011;10876;49.038;10.608;2024-02-26T00:23:35;0.93;;;0.93;;
21430;SDS011;10876;49.038;10.608;2024-02-26T00:26:01;2.60;;;1.55;;
21430;SDS011;10876;49.038;10.608;2024-02-26T00:28:28;2.13;;;1.02;;
21430;SDS011;10876;49.038;10.608;2024-02-26T00:30:56;1.88;;;1.50;;
21430;SDS011;10876;49.038;10.608;2024-02-26T00:33:23;1.30;;;1.20;;
21430;SDS011;10876;49.038;10.608;2024-02-26T00:35:50;2.25;;;1.60;;
21430;SDS011;10876;49.038;10.608;2024-02-26T00:38:16;4.35;;;1.55;;
21430;SDS011;10876;49.038;10.608;2024-02-26T00:40:43;1.52;;;1.38;;
21430;SDS011;10876;49.038;10.608;2024-02-26T00:43:10;1.48;;;1.38;;
21430;SDS011;10876;49.038;10.608;2024-02-26T00:45:36;3.38;;;1.92;;
21430;SDS011;10876;49.038;10.608;2024-02-26T00:48:05;4.53;;;1.75;;
21430;SDS011;10876;49.038;10.608;2024-02-26T00:50:32;1.45;;;1.35;;
21430;SDS011;10876;49.038;10.608;2024-02-26T00:52:59;0.95;;;0.95;;
21430;SDS011;10876;49.038;10.608;2024-02-26T00:55:26;1.50;;;1.25;;
21430;SDS011;10876;49.038;10.608;2024-02-26T00:57:52;0.93;;;0.90;;
21430;SDS011;10876;49.038;10.608;2024-02-26T01:00:19;3.10;;;1.27;;
21430;SDS011;10876;49.038;10.608;2024-02-26T01:02:46;0.95;;;0.80;;
21430;SDS011;10876;49.038;10.608;2024-02-26T01:05:14;1.52;;;1.42;;
21430;SDS011;10876;49.038;10.608;2024-02-26T01:07:41;2.30;;;1.63;;
21430;SDS011;10876;49.038;10.608;2024-02-26T01:10:08;1.50;;;1.15;;
21430;SDS011;10876;49.038;10.608;2024-02-26T01:12:35;1.42;;;1.10;;
21430;SDS011;10876;49.038;10.608;2024-02-26T01:15:02;1.80;;;1.60;;
21430;SDS011;10876;49.038;10.608;2024-02-26T01:17:29;1.38;;;1.10;;
21430;SDS011;10876;49.038;10.608;2024-02-26T01:19:55;3.05;;;1.27;;
21430;SDS011;10876;49.038;10.608;2024-02-26T01:22:23;1.05;;;0.95;;
21430;SDS011;10876;49.038;10.608;2024-02-26T01:24:50;2.67;;;1.95;;
21430;SDS011;10876;49.038;10.608;2024-02-26T01:27:17;1.10;;;0.95;;
21430;SDS011;10876;49.038;10.608;2024-02-26T01:29:44;1.05;;;1.02;;
21430;SDS011;10876;49.038;10.608;2024-02-26T01:32:11;1.60;;;1.50;;
21430;SDS011;10876;49.038;10.608;2024-02-26T01:34:38;3.35;;;1.75;;
21430;SDS011;10876;49.038;10.608;2024-02-26T01:37:04;1.77;;;1.48;;
21430;SDS011;10876;49.038;10.608;2024-02-26T01:39:32;2.17;;;1.70;;
21430;SDS011;10876;49.038;10.608;2024-02-26T01:41:59;1.20;;;1.10;;
21430;SDS011;10876;49.038;10.608;2024-02-26T01:44:26;2.00;;;1.70;;
21430;SDS011;10876;49.038;10.608;2024-02-26T01:46:52;3.08;;;1.65;;
21430;SDS011;10876;49.038;10.608;2024-02-26T01:49:19;2.72;;;1.58;;
21430;SDS011;10876;49.038;10.608;2024-02-26T01:51:46;2.13;;;1.85;;
21430;SDS011;10876;49.038;10.608;2024-02-26T01:54:13;1.30;;;1.20;;
21430;SDS011;10876;49.038;10.608;2024-02-26T01:56:41;1.73;;;1.15;;
21430;SDS011;10876;49.038;10.608;2024-02-26T01:59:08;3.33;;;2.03;;
21430;SDS011;10876;49.038;10.608;2024-02-26T02:01:34;4.85;;;1.42;;
21430;SDS011;10876;49.038;10.608;2024-02-26T02:04:01;2.20;;;1.33;;
21430;SDS011;10876;49.038;10.608;2024-02-26T02:06:28;1.45;;;1.10;;
21430;SDS011;10876;49.038;10.608;2024-02-26T02:08:55;1.33;;;1.23;;
21430;SDS011;10876;49.038;10.608;2024-02-26T02:11:21;2.55;;;1.33;;
21430;SDS011;10876;49.038;10.608;2024-02-26T02:13:49;1.02;;;1.02;;
21430;SDS011;10876;49.038;10.608;2024-02-26T02:16:16;1.52;;;1.42;;
21430;SDS011;10876;49.038;10.608;2024-02-26T02:18:42;2.58;;;1.35;;
21430;SDS011;10876;49.038;10.608;2024-02-26T02:21:11;2.00;;;1.38;;
21430;SDS011;10876;49.038;10.608;2024-02-26T02:23:37;1.40;;;1.25;;
21430;SDS011;10876;49.038;10.608;2024-02-26T02:26:04;5.50;;;1.52;;
21430;SDS011;10876;49.038;10.608;2024-02-26T02:28:30;2.72;;;1.33;;
21430;SDS011;10876;49.038;10.608;2024-02-26T02:30:57;1.45;;;1.27;;
21430;SDS011;10876;49.038;10.608;2024-02-26T02:33:26;2.38;;;1.75;;
21430;SDS011;10876;49.038;10.608;2024-02-26T02:35:52;2.00;;;1.83;;
21430;SDS011;10876;49.038;10.608;2024-02-26T02:38:21;1.33;;;1.23;;
21430;SDS011;10876;49.038;10.608;2024-02-26T02:40:49;2.28;;;1.48;;
21430;SDS011;10876;49.038;10.608;2024-02-26T02:43:15;2.53;;;1.38;;
21430;SDS011;10876;49.038;10.608;2024-02-26T02:45:42;2.15;;;1.75;;
21430;SDS011;10876;49.038;10.608;2024-02-26T02:48:08;1.63;;;1.08;;
21430;SDS011;10876;49.038;10.608;2024-02-26T02:50:35;1.67;;;1.58;;
21430;SDS011;10876;49.038;10.608;2024-02-26T02:53:02;2.38;;;1.83;;
21430;SDS011;10876;49.038;10.608;2024-02-26T02:55:30;3.15;;;1.10;;
21430;SDS011;10876;49.038;10.608;2024-02-26T02:57:56;4.82;;;2.35;;
21430;SDS011;10876;49.038;10.608;2024-02-26T03:00:23;3.10;;;1.90;;
21430;SDS011;10876;49.038;10.608;2024-02-26T03:02:50;4.68;;;1.60;;
21430;SDS011;10876;49.038;10.608;2024-02-26T03:05:16;4.68;;;2.17;;
21430;SDS011;10876;49.038;10.608;2024-02-26T03:07:43;1.50;;;1.40;;
21430;SDS011;10876;49.038;10.608;2024-02-26T03:10:10;2.75;;;1.70;;
21430;SDS011;10876;49.038;10.608;2024-02-26T03:12:38;1.58;;;1.42;;
21430;SDS011;10876;49.038;10.608;2024-02-26T03:15:05;1.70;;;1.33;;
21430;SDS011;10876;49.038;10.608;2024-02-26T03:17:32;2.70;;;1.65;;
21430;SDS011;10876;49.038;10.608;2024-02-26T03:19:58;3.75;;;1.42;;
21430;SDS011;10876;49.038;10.608;2024-02-26T03:22:25;5.13;;;2.28;;
21430;SDS011;10876;49.038;10.608;2024-02-26T03:24:52;1.83;;;1.25;;
21430;SDS011;10876;49.038;10.608;2024-02-26T03:27:18;1.73;;;1.63;;
21430;SDS011;10876;49.038;10.608;2024-02-26T03:29:46;1.90;;;1.30;;
21430;SDS011;10876;49.038;10.608;2024-02-26T03:32:13;3.42;;;1.95;;
21430;SDS011;10876;49.038;10.608;2024-02-26T03:34:40;2.92;;;1.98;;
21430;SDS011;10876;49.038;10.608;2024-02-26T03:37:06;1.48;;;1.38;;
21430;SDS011;10876;49.038;10.608;2024-02-26T03:39:35;1.65;;;1.40;;
21430;SDS011;10876;49.038;10.608;2024-02-26T03:42:02;4.15;;;1.92;;
21430;SDS011;10876;49.038;10.608;2024-02-26T03:44:29;1.77;;;1.65;;
21430;SDS011;10876;49.038;10.608;2024-02-26T03:46:57;5.95;;;2.17;;
21430;SDS011;10876;49.038;10.608;2024-02-26T03:52:26;3.53;;;1.77;;
21430;SDS011;10876;49.038;10.608;2024-02-26T03:54:53;3.90;;;2.15;;
21430;SDS011;10876;49.038;10.608;2024-02-26T04:00:08;3.70;;;1.85;;
21430;SDS011;10876;49.038;10.608;2024-02-26T04:02:37;1.38;;;1.27;;
21430;SDS011;10876;49.038;10.608;2024-02-26T04:05:04;1.02;;;0.93;;
21430;SDS011;10876;49.038;10.608;2024-02-26T04:07:30;1.30;;;0.93;;
21430;SDS011;10876;49.038;10.608;2024-02-26T04:09:57;1.80;;;0.82;;
21430;SDS011;10876;49.038;10.608;2024-02-26T04:12:24;1.95;;;1.45;;
21430;SDS011;10876;49.038;10.608;2024-02-26T04:14:50;2.25;;;1.58;;
21430;SDS011;10876;49.038;10.608;2024-02-26T04:17:17;5.28;;;1.38;;
21430;SDS011;10876;49.038;10.608;2024-02-26T04:19:45;3.58;;;1.85;;
21430;SDS011;10876;49.038;10.608;2024-02-26T04:22:12;4.35;;;1.80;;
21430;SDS011;10876;49.038;10.608;2024-02-26T04:24:38;1.08;;;1.00;;
21430;SDS011;10876;49.038;10.608;2024-02-26T04:27:05;4.03;;;2.13;;
21430;SDS011;10876;49.038;10.608;2024-02-26T04:29:31;1.95;;;1.80;;
21430;SDS011;10876;49.038;10.608;2024-02-26T04:31:58;1.63;;;1.52;;
21430;SDS011;10876;49.038;10.608;2024-02-26T04:34:25;2.92;;;1.20;;
21430;SDS011;10876;49.038;10.608;2024-02-26T04:36:53;1.50;;;1.40;;
21430;SDS011;10876;49.038;10.608;2024-02-26T04:39:20;1.50;;;1.40;;
21430;SDS011;10876;49.038;10.608;2024-02-26T04:41:46;1.83;;;1.30;;
21430;SDS011;10876;49.038;10.608;2024-02-26T04:44:13;2.15;;;1.63;;
21430;SDS011;10876;49.038;10.608;2024-02-26T04:46:40;2.38;;;1.55;;
21430;SDS011;10876;49.038;10.608;2024-02-26T04:49:07;2.53;;;1.40;;
21430;SDS011;10876;49.038;10.608;2024-02-26T04:54:21;3.28;;;1.77;;
21430;SDS011;10876;49.038;10.608;2024-02-26T04:56:52;1.80;;;1.55;;
21430;SDS011;10876;49.038;10.608;2024-02-26T04:59:19;3.38;;;1.25;;
21430;SDS011;10876;49.038;10.608;2024-02-26T05:01:47;3.45;;;1.52;;
21430;SDS011;10876;49.038;10.608;2024-02-26T05:04:15;5.03;;;2.60;;
21430;SDS011;10876;49.038;10.608;2024-02-26T05:06:42;3.55;;;1.55;;
21430;SDS011;10876;49.038;10.608;2024-02-26T05:09:10;2.60;;;1.85;;
21430;SDS011;10876;49.038;10.608;2024-02-26T05:11:41;3.72;;;1.85;;
21430;SDS011;10876;49.038;10.608;2024-02-26T05:14:08;2.08;;;1.65;;
21430;SDS011;10876;49.038;10.608;2024-02-26T05:16:35;3.83;;;1.85;;
21430;SDS011;10876;49.038;10.608;2024-02-26T05:19:04;3.92;;;2.10;;
21430;SDS011;10876;49.038;10.608;2024-02-26T05:21:31;4.65;;;2.72;;
21430;SDS011;10876;49.038;10.608;2024-02-26T05:23:59;1.83;;;1.73;;
21430;SDS011;10876;49.038;10.608;2024-02-26T05:26:27;3.72;;;1.95;;
21430;SDS011;10876;49.038;10.608;2024-02-26T05:28:56;5.30;;;2.63;;
21430;SDS011;10876;49.038;10.608;2024-02-26T05:31:25;2.83;;;1.80;;
21430;SDS011;10876;49.038;10.608;2024-02-26T05:33:53;2.28;;;1.73;;
21430;SDS011;10876;49.038;10.608;2024-02-26T05:36:21;2.97;;;1.52;;
21430;SDS011;10876;49.038;10.608;2024-02-26T05:38:48;4.00;;;2.28;;
21430;SDS011;10876;49.038;10.608;2024-02-26T05:41:17;4.32;;;2.58;;
21430;SDS011;10876;49.038;10.608;2024-02-26T05:43:48;2.05;;;1.85;;
21430;SDS011;10876;49.038;10.608;2024-02-26T05:46:19;2.90;;;1.67;;
21430;SDS011;10876;49.038;10.608;2024-02-26T05:48:47;3.97;;;2.40;;
21430;SDS011;10876;49.038;10.608;2024-02-26T05:51:15;2.53;;;1.80;;
21430;SDS011;10876;49.038;10.608;2024-02-26T05:53:43;7.22;;;2.50;;
21430;SDS011;10876;49.038;10.608;2024-02-26T05:56:14;8.00;;;2.25;;
21430;SDS011;10876;49.038;10.608;2024-02-26T05:58:42;5.55;;;2.38;;
21430;SDS011;10876;49.038;10.608;2024-02-26T06:01:10;3.53;;;1.67;;
21430;SDS011;10876;49.038;10.608;2024-02-26T06:03:40;5.55;;;1.45;;
21430;SDS011;10876;49.038;10.608;2024-02-26T06:06:08;7.93;;;2.88;;
21430;SDS011;10876;49.038;10.608;2024-02-26T06:08:38;3.55;;;3.05;;
21430;SDS011;10876;49.038;10.608;2024-02-26T06:11:07;3.00;;;1.95;;
21430;SDS011;10876;49.038;10.608;2024-02-26T06:13:33;10.52;;;2.80;;
21430;SDS011;10876;49.038;10.608;2024-02-26T06:16:00;3.85;;;2.00;;
21430;SDS011;10876;49.038;10.608;2024-02-26T06:18:27;4.35;;;2.38;;
21430;SDS011;10876;49.038;10.608;2024-02-26T06:20:55;3.38;;;2.15;;
21430;SDS011;10876;49.038;10.608;2024-02-26T06:23:22;3.10;;;2.22;;
21430;SDS011;10876;49.038;10.608;2024-02-26T06:25:49;3.90;;;2.47;;
21430;SDS011;10876;49.038;10.608;2024-02-26T06:28:16;4.43;;;2.63;;
21430;SDS011;10876;49.038;10.608;2024-02-26T06:30:42;3.38;;;1.75;;
21430;SDS011;10876;49.038;10.608;2024-02-26T06:33:09;5.63;;;2.47;;
21430;SDS011;10876;49.038;10.608;2024-02-26T06:35:36;6.55;;;3.00;;
21430;SDS011;10876;49.038;10.608;2024-02-26T06:38:04;2.08;;;1.88;;
21430;SDS011;10876;49.038;10.608;2024-02-26T06:40:30;5.40;;;2.90;;
21430;SDS011;10876;49.038;10.608;2024-02-26T06:42:57;5.95;;;2.47;;
21430;SDS011;10876;49.038;10.608;2024-02-26T06:45:23;2.92;;;1.63;;
21430;SDS011;10876;49.038;10.608;2024-02-26T06:47:50;1.98;;;1.80;;
21430;SDS011;10876;49.038;10.608;2024-02-26T06:50:17;4.72;;;2.88;;
21430;SDS011;10876;49.038;10.608;2024-02-26T06:52:44;2.72;;;2.40;;
21430;SDS011;10876;49.038;10.608;2024-02-26T06:55:12;4.13;;;2.55;;
21430;SDS011;10876;49.038;10.608;2024-02-26T06:57:38;3.20;;;2.65;;
21430;SDS011;10876;49.038;10.608;2024-02-26T07:00:05;2.55;;;2.35;;
21430;SDS011;10876;49.038;10.608;2024-02-26T07:02:32;2.50;;;1.70;;
21430;SDS011;10876;49.038;10.608;2024-02-26T07:04:58;3.88;;;2.90;;
21430;SDS011;10876;49.038;10.608;2024-02-26T07:07:25;5.68;;;3.10;;
21430;SDS011;10876;49.038;10.608;2024-02-26T07:09:52;3.80;;;2.65;;
21430;SDS011;10876;49.038;10.608;2024-02-26T07:12:21;4.65;;;3.33;;
21430;SDS011;10876;49.038;10.608;2024-02-26T07:14:47;5.82;;;2.80;;
21430;SDS011;10876;49.038;10.608;2024-02-26T07:17:14;4.47;;;2.60;;
21430;SDS011;10876;49.038;10.608;2024-02-26T07:19:41;3.40;;;2.45;;
21430;SDS011;10876;49.038;10.608;2024-02-26T07:22:08;3.13;;;2.35;;
21430;SDS011;10876;49.038;10.608;2024-02-26T07:24:34;2.53;;;2.15;;
21430;SDS011;10876;49.038;10.608;2024-02-26T07:27:01;3.13;;;2.55;;
21430;SDS011;10876;49.038;10.608;2024-02-26T07:29:29;5.30;;;2.53;;
21430;SDS011;10876;49.038;10.608;2024-02-26T07:31:55;5.57;;;2.97;;
21430;SDS011;10876;49.038;10.608;2024-02-26T07:34:22;2.55;;;2.08;;
21430;SDS011;10876;49.038;10.608;2024-02-26T07:36:52;7.72;;;3.22;;
21430;SDS011;10876;49.038;10.608;2024-02-26T07:39:19;4.00;;;2.53;;
21430;SDS011;10876;49.038;10.608;2024-02-26T07:41:46;5.60;;;3.00;;
21430;SDS011;10876;49.038;10.608;2024-02-26T07:44:15;5.63;;;3.55;;
21430;SDS011;10876;49.038;10.608;2024-02-26T07:46:43;3.40;;;2.45;;
21430;SDS011;10876;49.038;10.608;2024-02-26T07:49:09;5.78;;;2.90;;
21430;SDS011;10876;49.038;10.608;2024-02-26T07:51:36;6.88;;;2.58;;
21430;SDS011;10876;49.038;10.608;2024-02-26T07:54:03;7.88;;;2.70;;
21430;SDS011;10876;49.038;10.608;2024-02-26T07:56:29;4.38;;;2.72;;
21430;SDS011;10876;49.038;10.608;2024-02-26T07:58:56;4.50;;;3.53;;
21430;SDS011;10876;49.038;10.608;2024-02-26T08:01:22;5.28;;;3.17;;
21430;SDS011;10876;49.038;10.608;2024-02-26T08:03:52;3.33;;;2.20;;
21430;SDS011;10876;49.038;10.608;2024-02-26T08:06:19;6.05;;;2.70;;
21430;SDS011;10876;49.038;10.608;2024-02-26T08:08:45;2.40;;;2.15;;
21430;SDS011;10876;49.038;10.608;2024-02-26T08:11:14;3.20;;;2.45;;
21430;SDS011;10876;49.038;10.608;2024-02-26T08:13:40;3.85;;;2.33;;
21430;SDS011;10876;49.038;10.608;2024-02-26T08:16:10;4.93;;;2.78;;
21430;SDS011;10876;49.038;10.608;2024-02-26T08:18:37;3.88;;;2.65;;
21430;SDS011;10876;49.038;10.608;2024-02-26T08:21:05;5.07;;;3.65;;
21430;SDS011;10876;49.038;10.608;2024-02-26T08:23:32;4.78;;;2.63;;
21430;SDS011;10876;49.038;10.608;2024-02-26T08:25:59;18.85;;;5.60;;
21430;SDS011;10876;49.038;10.608;2024-02-26T08:28:25;6.65;;;3.22;;
21430;SDS011;10876;49.038;10.608;2024-02-26T08:30:52;7.90;;;3.30;;
21430;SDS011;10876;49.038;10.608;2024-02-26T08:33:18;5.07;;;2.40;;
21430;SDS011;10876;49.038;10.608;2024-02-26T08:35:45;4.90;;;2.78;;
21430;SDS011;10876;49.038;10.608;2024-02-26T08:38:13;4.10;;;2.65;;
21430;SDS011;10876;49.038;10.608;2024-02-26T08:40:40;5.60;;;2.20;;
21430;SDS011;10876;49.038;10.608;2024-02-26T08:43:06;3.97;;;2.50;;
21430;SDS011;10876;49.038;10.608;2024-02-26T08:45:33;3.90;;;2.58;;
21430;SDS011;10876;49.038;10.608;2024-02-26T08:48:00;4.43;;;2.03;;
21430;SDS011;10876;49.038;10.608;2024-02-26T08:50:37;3.88;;;2.63;;
21430;SDS011;10876;49.038;10.608;2024-02-26T08:53:05;5.90;;;3.17;;
21430;SDS011;10876;49.038;10.608;2024-02-26T08:55:34;4.90;;;2.70;;
21430;SDS011;10876;49.038;10.608;2024-02-26T08:58:13;6.82;;;2.55;;
21430;SDS011;10876;49.038;10.608;2024-02-26T09:00:39;2.80;;;1.65;;
21430;SDS011;10876;49.038;10.608;2024-02-26T09:03:06;2.30;;;2.00;;
21430;SDS011;10876;49.038;10.608;2024-02-26T09:05:33;3.17;;;2.05;;
21430;SDS011;10876;49.038;10.608;2024-02-26T09:08:00;2.70;;;1.70;;
21430;SDS011;10876;49.038;10.608;2024-02-26T09:10:26;2.53;;;1.85;;
21430;SDS011;10876;49.038;10.608;2024-02-26T09:12:54;3.70;;;2.35;;
21430;SDS011;10876;49.038;10.608;2024-02-26T09:15:21;3.10;;;2.00;;
21430;SDS011;10876;49.038;10.608;2024-02-26T09:17:48;4.28;;;2.03;;
21430;SDS011;10876;49.038;10.608;2024-02-26T09:20:20;3.75;;;1.95;;
21430;SDS011;10876;49.038;10.608;2024-02-26T09:22:54;1.73;;;1.40;;
21430;SDS011;10876;49.038;10.608;2024-02-26T09:25:20;3.00;;;1.95;;
21430;SDS011;10876;49.038;10.608;2024-02-26T09:27:47;3.50;;;1.88;;
21430;SDS011;10876;49.038;10.608;2024-02-26T09:30:15;4.32;;;1.90;;
21430;SDS011;10876;49.038;10.608;2024-02-26T09:32:45;3.15;;;1.60;;
21430;SDS011;10876;49.038;10.608;2024-02-26T09:35:12;4.32;;;1.92;;
21430;SDS011;10876;49.038;10.608;2024-02-26T09:37:39;3.25;;;1.70;;
21430;SDS011;10876;49.038;10.608;2024-02-26T09:40:08;3.38;;;2.13;;
21430;SDS011;10876;49.038;10.608;2024-02-26T09:42:37;3.50;;;1.80;;
21430;SDS011;10876;49.038;10.608;2024-02-26T09:45:05;2.60;;;1.90;;
21430;SDS011;10876;49.038;10.608;2024-02-26T09:47:35;2.92;;;1.73;;
21430;SDS011;10876;49.038;10.608;2024-02-26T09:50:14;3.70;;;1.98;;
21430;SDS011;10876;49.038;10.608;2024-02-26T09:52:44;4.60;;;2.22;;
21430;SDS011;10876;49.038;10.608;2024-02-26T09:55:12;4.43;;;2.47;;
21430;SDS011;10876;49.038;10.608;2024-02-26T09:57:40;5.75;;;2.42;;
21430;SDS011;10876;49.038;10.608;2024-02-26T10:00:10;3.28;;;2.00;;
21430;SDS011;10876;49.038;10.608;2024-02-26T10:02:41;4.70;;;2.50;;
21430;SDS011;10876;49.038;10.608;2024-02-26T10:05:09;7.00;;;2.65;;
21430;SDS011;10876;49.038;10.608;2024-02-26T10:07:36;4.18;;;2.20;;
21430;SDS011;10876;49.038;10.608;2024-02-26T10:10:03;2.78;;;1.80;;
21430;SDS011;10876;49.038;10.608;2024-02-26T10:12:30;4.53;;;2.40;;
21430;SDS011;10876;49.038;10.608;2024-02-26T10:14:58;5.30;;;3.20;;
21430;SDS011;10876;49.038;10.608;2024-02-26T10:17:24;5.38;;;2.25;;
21430;SDS011;10876;49.038;10.608;2024-02-26T10:19:52;5.25;;;2.35;;
21430;SDS011;10876;49.038;10.608;2024-02-26T10:22:21;5.40;;;2.22;;
21430;SDS011;10876;49.038;10.608;2024-02-26T10:24:48;2.58;;;1.88;;
21430;SDS011;10876;49.038;10.608;2024-02-26T10:27:15;3.15;;;2.15;;
21430;SDS011;10876;49.038;10.608;2024-02-26T10:29:41;3.42;;;2.35;;
21430;SDS011;10876;49.038;10.608;2024-02-26T10:32:08;6.32;;;3.17;;
21430;SDS011;10876;49.038;10.608;2024-02-26T10:34:36;3.67;;;2.00;;
21430;SDS011;10876;49.038;10.608;2024-02-26T10:37:06;5.60;;;2.55;;
21430;SDS011;10876;49.038;10.608;2024-02-26T10:39:33;2.90;;;1.85;;
21430;SDS011;10876;49.038;10.608;2024-02-26T10:42:00;5.30;;;2.28;;
21430;SDS011;10876;49.038;10.608;2024-02-26T10:44:31;5.90;;;3.25;;
21430;SDS011;10876;49.038;10.608;2024-02-26T10:46:58;4.38;;;2.53;;
21430;SDS011;10876;49.038;10.608;2024-02-26T10:49:27;5.18;;;2.75;;
21430;SDS011;10876;49.038;10.608;2024-02-26T10:51:55;5.22;;;2.15;;
21430;SDS011;10876;49.038;10.608;2024-02-26T10:54:25;2.47;;;1.83;;
21430;SDS011;10876;49.038;10.608;2024-02-26T10:56:52;5.07;;;2.38;;
21430;SDS011;10876;49.038;10.608;2024-02-26T10:59:28;4.32;;;2.40;;
21430;SDS011;10876;49.038;10.608;2024-02-26T11:01:55;5.38;;;2.40;;
21430;SDS011;10876;49.038;10.608;2024-02-26T11:04:22;3.38;;;1.83;;
21430;SDS011;10876;49.038;10.608;2024-02-26T11:06:50;4.18;;;2.63;;
21430;SDS011;10876;49.038;10.608;2024-02-26T11:09:17;2.75;;;1.75;;
21430;SDS011;10876;49.038;10.608;2024-02-26T11:11:45;5.70;;;2.70;;
21430;SDS011;10876;49.038;10.608;2024-02-26T11:14:11;5.22;;;2.63;;
21430;SDS011;10876;49.038;10.608;2024-02-26T11:16:39;3.72;;;1.98;;
21430;SDS011;10876;49.038;10.608;2024-02-26T11:19:08;3.75;;;2.08;;
21430;SDS011;10876;49.038;10.608;2024-02-26T11:21:35;3.17;;;1.88;;
21430;SDS011;10876;49.038;10.608;2024-02-26T11:24:07;4.30;;;2.40;;
21430;SDS011;10876;49.038;10.608;2024-02-26T11:26:34;2.75;;;2.13;;
21430;SDS011;10876;49.038;10.608;2024-02-26T11:29:02;4.40;;;1.95;;
21430;SDS011;10876;49.038;10.608;2024-02-26T11:31:29;5.03;;;1.90;;
21430;SDS011;10876;49.038;10.608;2024-02-26T11:33:56;3.28;;;2.03;;
21430;SDS011;10876;49.038;10.608;2024-02-26T11:36:23;1.80;;;1.60;;
21430;SDS011;10876;49.038;10.608;2024-02-26T11:38:50;3.58;;;1.77;;
21430;SDS011;10876;49.038;10.608;2024-02-26T11:41:17;5.07;;;1.92;;
21430;SDS011;10876;49.038;10.608;2024-02-26T11:43:50;2.78;;;1.92;;
21430;SDS011;10876;49.038;10.608;2024-02-26T11:46:29;5.05;;;2.78;;
21430;SDS011;10876;49.038;10.608;2024-02-26T11:48:58;3.20;;;2.10;;
21430;SDS011;10876;49.038;10.608;2024-02-26T11:51:25;2.75;;;1.80;;
21430;SDS011;10876;49.038;10.608;2024-02-26T11:53:52;2.63;;;1.83;;
21430;SDS011;10876;49.038;10.608;2024-02-26T11:56:22;2.78;;;1.70;;
21430;SDS011;10876;49.038;10.608;2024-02-26T11:58:53;4.07;;;1.40;;
21430;SDS011;10876;49.038;10.608;2024-02-26T12:01:37;4.47;;;2.17;;
21430;SDS011;10876;49.038;10.608;2024-02-26T12:04:04;4.65;;;1.73;;
21430;SDS011;10876;49.038;10.608;2024-02-26T12:06:31;4.53;;;1.90;;
21430;SDS011;10876;49.038;10.608;2024-02-26T12:08:58;4.43;;;1.45;;
21430;SDS011;10876;49.038;10.608;2024-02-26T12:11:27;3.22;;;1.60;;
21430;SDS011;10876;49.038;10.608;2024-02-26T12:13:53;4.10;;;1.88;;
21430;SDS011;10876;49.038;10.608;2024-02-26T12:16:34;2.53;;;1.38;;
21430;SDS011;10876;49.038;10.608;2024-02-26T12:19:02;3.00;;;1.75;;
21430;SDS011;10876;49.038;10.608;2024-02-26T12:21:30;4.25;;;1.92;;
21430;SDS011;10876;49.038;10.608;2024-02-26T12:24:06;3.28;;;1.98;;
21430;SDS011;10876;49.038;10.608;2024-02-26T12:26:33;2.22;;;1.80;;
21430;SDS011;10876;49.038;10.608;2024-02-26T12:29:05;2.60;;;1.65;;
21430;SDS011;10876;49.038;10.608;2024-02-26T12:31:32;4.28;;;2.40;;
21430;SDS011;10876;49.038;10.608;2024-02-26T12:33:59;2.05;;;1.73;;
21430;SDS011;10876;49.038;10.608;2024-02-26T12:36:27;2.15;;;1.23;;
21430;SDS011;10876;49.038;10.608;2024-02-26T12:38:54;2.95;;;1.63;;
21430;SDS011;10876;49.038;10.608;2024-02-26T12:41:21;2.83;;;1.52;;
21430;SDS011;10876;49.038;10.608;2024-02-26T12:43:48;2.38;;;1.50;;
21430;SDS011;10876;49.038;10.608;2024-02-26T12:46:14;1.75;;;1.40;;
21430;SDS011;10876;49.038;10.608;2024-02-26T12:48:43;2.50;;;1.45;;
21430;SDS011;10876;49.038;10.608;2024-02-26T12:51:18;1.52;;;0.93;;
21430;SDS011;10876;49.038;10.608;2024-02-26T12:53:49;3.45;;;1.38;;
21430;SDS011;10876;49.038;10.608;2024-02-26T12:56:17;3.38;;;1.13;;
21430;SDS011;10876;49.038;10.608;2024-02-26T12:58:50;2.65;;;1.65;;
21430;SDS011;10876;49.038;10.608;2024-02-26T13:03:47;3.03;;;1.80;;
21430;SDS011;10876;49.038;10.608;2024-02-26T13:06:15;1.52;;;1.10;;
21430;SDS011;10876;49.038;10.608;2024-02-26T13:08:42;2.08;;;1.00;;
21430;SDS011;10876;49.038;10.608;2024-02-26T13:11:10;5.18;;;1.38;;
21430;SDS011;10876;49.038;10.608;2024-02-26T13:13:36;1.60;;;1.38;;
21430;SDS011;10876;49.038;10.608;2024-02-26T13:16:04;2.28;;;1.60;;
21430;SDS011;10876;49.038;10.608;2024-02-26T13:18:32;6.30;;;1.20;;
21430;SDS011;10876;49.038;10.608;2024-02-26T13:21:08;1.98;;;1.48;;
21430;SDS011;10876;49.038;10.608;2024-02-26T13:23:35;2.97;;;1.00;;
21430;SDS011;10876;49.038;10.608;2024-02-26T13:26:02;2.03;;;1.38;;
21430;SDS011;10876;49.038;10.608;2024-02-26T13:28:30;2.13;;;1.13;;
21430;SDS011;10876;49.038;10.608;2024-02-26T13:30:57;2.65;;;1.45;;
21430;SDS011;10876;49.038;10.608;2024-02-26T13:33:25;2.25;;;1.20;;
21430;SDS011;10876;49.038;10.608;2024-02-26T13:35:52;0.95;;;0.90;;
21430;SDS011;10876;49.038;10.608;2024-02-26T13:38:19;6.82;;;1.42;;
21430;SDS011;10876;49.038;10.608;2024-02-26T13:40:46;2.10;;;1.23;;
21430;SDS011;10876;49.038;10.608;2024-02-26T13:43:13;3.25;;;1.60;;
21430;SDS011;10876;49.038;10.608;2024-02-26T13:45:41;3.00;;;1.60;;
21430;SDS011;10876;49.038;10.608;2024-02-26T13:48:09;2.00;;;1.25;;
21430;SDS011;10876;49.038;10.608;2024-02-26T13:50:37;2.88;;;1.60;;
21430;SDS011;10876;49.038;10.608;2024-02-26T13:53:05;2.58;;;1.35;;
21430;SDS011;10876;49.038;10.608;2024-02-26T13:55:32;2.30;;;1.48;;
21430;SDS011;10876;49.038;10.608;2024-02-26T13:58:06;1.50;;;1.10;;
21430;SDS011;10876;49.038;10.608;2024-02-26T14:00:32;3.33;;;1.77;;
21430;SDS011;10876;49.038;10.608;2024-02-26T14:03:01;1.80;;;1.30;;
21430;SDS011;10876;49.038;10.608;2024-02-26T14:05:28;4.07;;;1.10;;
21430;SDS011;10876;49.038;10.608;2024-02-26T14:07:55;1.73;;;1.33;;
21430;SDS011;10876;49.038;10.608;2024-02-26T14:10:22;2.08;;;1.00;;
21430;SDS011;10876;49.038;10.608;2024-02-26T14:12:49;1.98;;;0.88;;
21430;SDS011;10876;49.038;10.608;2024-02-26T14:15:15;4.55;;;1.40;;
21430;SDS011;10876;49.038;10.608;2024-02-26T14:17:42;0.80;;;0.80;;
21430;SDS011;10876;49.038;10.608;2024-02-26T14:20:11;1.40;;;1.02;;
21430;SDS011;10876;49.038;10.608;2024-02-26T14:22:38;1.38;;;1.10;;
21430;SDS011;10876;49.038;10.608;2024-02-26T14:25:07;0.82;;;0.73;;
21430;SDS011;10876;49.038;10.608;2024-02-26T14:27:34;0.93;;;0.90;;
21430;SDS011;10876;49.038;10.608;2024-02-26T14:30:01;1.42;;;1.33;;
21430;SDS011;10876;49.038;10.608;2024-02-26T14:32:28;1.63;;;0.98;;
21430;SDS011;10876;49.038;10.608;2024-02-26T14:34:55;1.02;;;0.93;;
21430;SDS011;10876;49.038;10.608;2024-02-26T14:37:23;1.05;;;0.95;;
21430;SDS011;10876;49.038;10.608;2024-02-26T14:39:50;1.38;;;1.05;;
21430;SDS011;10876;49.038;10.608;2024-02-26T14:42:17;2.10;;;1.10;;
21430;SDS011;10876;49.038;10.608;2024-02-26T14:44:44;3.75;;;0.73;;
21430;SDS011;10876;49.038;10.608;2024-02-26T14:47:12;1.40;;;0.93;;